METAR Data
IDs: Format: Raw Decoded Include TAF

Data at: 1311 UTC 16 Oct 2018

PAHL 161256Z AUTO 06015G23KT 10SM OVC012 02/00 A2935 RMK AO2 RAB26E46 SLP947 P0000 T00170000 FZRANO
PAHL 161056Z AUTO 06014G21KT 10SM OVC060 02/M01 A2937 RMK AO2 SLP957 T00171006 FZRANO
PAHL 160956Z AUTO 06013G21KT 10SM OVC060 02/M01 A2940 RMK AO2 RAE01UPB40E50 SLP967 P0000 T00171006 FZRANO
PAHL 160856Z AUTO 05011G18KT 10SM -RA BKN048 OVC065 02/M01 A2942 RMK AO2 UPB18E20RAB20SNB22E32 SLP974 P0000 60000 T00221011 400221022 56025 FZRANO
PAHL 160756Z AUTO 06012KT 10SM BKN065 02/M02 A2945 RMK AO2 SLP981 T00221022 FZRANO
PAHL 160656Z AUTO 06009G16KT 10SM CLR 02/M02 A2946 RMK AO2 SLP986 T00171022 FZRANO
PAHL 160556Z AUTO 05010KT 10SM CLR 01/M02 A2950 RMK AO2 SLP998 T00111022 10022 20011 55014 FZRANO
PAHL 160456Z AUTO 06012KT 10SM CLR 02/M02 A2949 RMK AO2 SLP997 T00221022 FZRANO
PAHL 160356Z AUTO 06016G23KT 10SM FEW110 02/M02 A2951 RMK AO2 SLP003 T00221022 FZRANO
PAHL 160256Z AUTO 06014G23KT 10SM BKN075 02/M02 A2954 RMK AO2 SLP013 T00221017 58033 FZRANO
PAHL 160156Z AUTO 05012G17KT 10SM OVC070 02/M02 A2959 RMK AO2 SLP028 T00221017 FZRANO
PAHL 160056Z AUTO 06011KT 10SM OVC090 02/M02 A2962 RMK AO2 SLP040 T00221017 FZRANO
PAHL 152356Z AUTO 06015G21KT 10SM CLR 02/M01 A2964 RMK AO2 SLP047 T00221011 10022 21017 58022 FZRANO
PAHL 152256Z AUTO 06014G21KT 10SM CLR 02/M01 A2967 RMK AO2 SLP058 T00221011 FZRANO
PAHL 152156Z AUTO 06014G20KT 10SM CLR 01/M01 A2968 RMK AO2 SLP062 T00111011 FZRANO
PAHL 151956Z AUTO 05012G23KT 10SM CLR 01/M01 A2971 RMK AO2 SLP070 T00061011 FZRANO
PAHL 151856Z AUTO 06015G20KT 10SM CLR M01/M02 A2973 RMK AO2 SLP079 T10111022 FZRANO
PAHL 151756Z AUTO 06011G20KT 10SM CLR M02/M03 A2975 RMK AO2 SLP084 T10171028 11017 21022 55005 FZRANO
PAHL 151656Z AUTO 06010KT 10SM CLR M02/M03 A2975 RMK AO2 SLP084 T10221028 FZRANO
PAHL 151556Z AUTO 07009G14KT 10SM CLR M02/M03 A2976 RMK AO2 SLP086 T10221028 FZRANO
PAHL 151456Z AUTO 07009KT 10SM CLR M02/M03 A2977 RMK AO2 SLP090 T10221028 56020 FZRANO
PAHL 151356Z AUTO 07010KT 10SM CLR M02/M03 A2977 RMK AO2 SLP092 T10221028 FZRANO
PAHL 151329Z AUTO 07008KT 10SM SCT002 M02/M03 A2979 RMK AO2 FZRANO
PAHL 151256Z AUTO 06008KT 10SM OVC002 M02/M03 A2980 RMK AO2 SLP100 T10221028 FZRANO
PAHL 151203Z AUTO 08006KT 1 1/2SM BR BKN002 M02/M02 A2982 RMK AO2 FZRANO
PAHL 151156Z AUTO 08008KT 1 1/4SM BR SCT004 M02/M02 A2982 RMK AO2 SLP109 T10171022 11006 21017 50001 FZRANO
PAHL 151151Z AUTO 09008KT 1 1/2SM BR FEW004 M02/M02 A2982 RMK AO2 FZRANO
PAHL 151134Z AUTO 09007KT 1 3/4SM BR CLR M02/M02 A2982 RMK AO2 FZRANO
PAHL 151056Z AUTO 08006KT 10SM CLR M02/M02 A2982 RMK AO2 SLP108 T10171022 FZRANO
PAHL 150956Z AUTO 08008KT 10SM CLR M01/M01 A2982 RMK AO2 SLP108 T10111011 FZRANO
PAHL 150856Z AUTO 06007KT 10SM CLR M01/M01 A2982 RMK AO2 SLP108 T10061011 400611011 56002 FZRANO
PAHL 150756Z AUTO 07007KT 10SM CLR M01/M01 A2982 RMK AO2 SLP109 T10111011 FZRANO
PAHL 150656Z AUTO 06006KT 10SM CLR M01/M01 A2982 RMK AO2 SLP109 T10111011 FZRANO
PAHL 150556Z AUTO 06006KT 10SM CLR M01/M01 A2983 RMK AO2 SLP110 T10061011 10061 21006 53003 FZRANO
PAHL 150456Z AUTO 06004KT 10SM CLR 00/M01 A2982 RMK AO2 SLP108 T00001011 FZRANO
PAHL 150356Z AUTO 06006KT 10SM CLR 02/01 A2982 RMK AO2 SLP107 T00170006 FZRANO
PAHL 150256Z AUTO 04005KT 10SM CLR 03/02 A2982 RMK AO2 SLP107 T00330017 57011
PAHL 150156Z AUTO 04005KT 10SM CLR 05/03 A2983 RMK AO2 SLP110 T00500028